sensor_id;sensor_type;location;lat;lon;timestamp;temperature;humidity
12276;DHT22;6200;48.144;11.424;2022-09-09T00:01:54;16.50;99.90
12276;DHT22;6200;48.144;11.424;2022-09-09T00:04:36;16.50;99.90
12276;DHT22;6200;48.144;11.424;2022-09-09T00:07:25;16.50;99.90
12276;DHT22;6200;48.144;11.424;2022-09-09T00:15:19;16.50;99.90
12276;DHT22;6200;48.144;11.424;2022-09-09T00:18:08;16.50;99.90
12276;DHT22;6200;48.144;11.424;2022-09-09T00:20:47;16.50;99.90
12276;DHT22;6200;48.144;11.424;2022-09-09T00:23:25;16.50;99.90
12276;DHT22;6200;48.144;11.424;2022-09-09T00:26:02;16.50;99.90
12276;DHT22;6200;48.144;11.424;2022-09-09T00:28:32;16.50;99.90
12276;DHT22;6200;48.144;11.424;2022-09-09T00:31:16;16.50;99.90
12276;DHT22;6200;48.144;11.424;2022-09-09T00:33:44;16.50;99.90
12276;DHT22;6200;48.144;11.424;2022-09-09T00:36:14;16.50;99.90
12276;DHT22;6200;48.144;11.424;2022-09-09T00:38:45;16.60;99.90
12276;DHT22;6200;48.144;11.424;2022-09-09T00:41:20;16.50;99.90
12276;DHT22;6200;48.144;11.424;2022-09-09T00:43:57;16.40;99.90
12276;DHT22;6200;48.144;11.424;2022-09-09T00:49:04;16.40;99.90
12276;DHT22;6200;48.144;11.424;2022-09-09T00:56:44;16.30;99.90
12276;DHT22;6200;48.144;11.424;2022-09-09T00:59:32;16.30;99.90
12276;DHT22;6200;48.144;11.424;2022-09-09T01:02:07;16.20;99.90
12276;DHT22;6200;48.144;11.424;2022-09-09T01:04:38;16.20;99.90
12276;DHT22;6200;48.144;11.424;2022-09-09T01:07:16;16.20;99.90
12276;DHT22;6200;48.144;11.424;2022-09-09T01:12:34;16.10;99.90
12276;DHT22;6200;48.144;11.424;2022-09-09T01:15:11;16.10;99.90
12276;DHT22;6200;48.144;11.424;2022-09-09T01:20:35;16.00;99.90
12276;DHT22;6200;48.144;11.424;2022-09-09T01:23:35;16.00;99.90
12276;DHT22;6200;48.144;11.424;2022-09-09T01:26:33;16.00;99.90
12276;DHT22;6200;48.144;11.424;2022-09-09T01:29:00;16.00;99.90
12276;DHT22;6200;48.144;11.424;2022-09-09T01:31:34;16.00;99.90
12276;DHT22;6200;48.144;11.424;2022-09-09T01:34:02;16.00;99.90
12276;DHT22;6200;48.144;11.424;2022-09-09T01:36:41;16.00;99.90
12276;DHT22;6200;48.144;11.424;2022-09-09T01:39:07;16.10;99.90
12276;DHT22;6200;48.144;11.424;2022-09-09T01:41:33;16.00;99.90
12276;DHT22;6200;48.144;11.424;2022-09-09T01:43:59;16.00;99.90
12276;DHT22;6200;48.144;11.424;2022-09-09T01:46:24;16.00;99.90
12276;DHT22;6200;48.144;11.424;2022-09-09T01:48:51;16.00;99.90
12276;DHT22;6200;48.144;11.424;2022-09-09T01:51:17;15.90;99.90
12276;DHT22;6200;48.144;11.424;2022-09-09T01:53:43;16.00;99.90
12276;DHT22;6200;48.144;11.424;2022-09-09T01:56:17;15.90;99.90
12276;DHT22;6200;48.144;11.424;2022-09-09T01:59:09;15.90;99.90
12276;DHT22;6200;48.144;11.424;2022-09-09T02:02:16;15.90;99.90
12276;DHT22;6200;48.144;11.424;2022-09-09T02:04:50;15.80;99.90
12276;DHT22;6200;48.144;11.424;2022-09-09T02:07:43;15.80;99.90
12276;DHT22;6200;48.144;11.424;2022-09-09T02:10:24;15.80;99.90
12276;DHT22;6200;48.144;11.424;2022-09-09T02:13:12;15.80;99.90
12276;DHT22;6200;48.144;11.424;2022-09-09T02:19:02;15.80;99.90
12276;DHT22;6200;48.144;11.424;2022-09-09T02:21:32;15.70;99.90
12276;DHT22;6200;48.144;11.424;2022-09-09T02:24:03;15.80;99.90
12276;DHT22;6200;48.144;11.424;2022-09-09T02:26:32;15.60;99.90
12276;DHT22;6200;48.144;11.424;2022-09-09T02:29:02;15.80;99.90
12276;DHT22;6200;48.144;11.424;2022-09-09T02:31:28;15.70;99.90
12276;DHT22;6200;48.144;11.424;2022-09-09T02:33:58;15.80;99.90
12276;DHT22;6200;48.144;11.424;2022-09-09T02:36:27;15.70;99.90
12276;DHT22;6200;48.144;11.424;2022-09-09T02:38:54;15.70;99.90
12276;DHT22;6200;48.144;11.424;2022-09-09T02:41:25;15.60;99.90
12276;DHT22;6200;48.144;11.424;2022-09-09T02:43:52;15.70;99.90
12276;DHT22;6200;48.144;11.424;2022-09-09T02:52:18;15.60;99.90
12276;DHT22;6200;48.144;11.424;2022-09-09T02:54:44;15.60;99.90
12276;DHT22;6200;48.144;11.424;2022-09-09T02:57:12;15.50;99.90
12276;DHT22;6200;48.144;11.424;2022-09-09T02:59:39;15.50;99.90
12276;DHT22;6200;48.144;11.424;2022-09-09T03:02:06;15.50;99.90
12276;DHT22;6200;48.144;11.424;2022-09-09T03:04:31;15.50;99.90
12276;DHT22;6200;48.144;11.424;2022-09-09T03:06:58;15.50;99.90
12276;DHT22;6200;48.144;11.424;2022-09-09T03:09:23;15.40;99.90
12276;DHT22;6200;48.144;11.424;2022-09-09T03:11:49;15.50;99.90
12276;DHT22;6200;48.144;11.424;2022-09-09T03:14:15;15.50;99.90
12276;DHT22;6200;48.144;11.424;2022-09-09T03:16:41;15.40;99.90
12276;DHT22;6200;48.144;11.424;2022-09-09T03:19:08;15.50;99.90
12276;DHT22;6200;48.144;11.424;2022-09-09T03:21:34;15.50;99.90
12276;DHT22;6200;48.144;11.424;2022-09-09T03:24:01;15.40;99.90
12276;DHT22;6200;48.144;11.424;2022-09-09T03:26:29;15.40;99.90
12276;DHT22;6200;48.144;11.424;2022-09-09T03:28:55;15.40;99.90
12276;DHT22;6200;48.144;11.424;2022-09-09T03:31:21;15.40;99.90
12276;DHT22;6200;48.144;11.424;2022-09-09T03:33:46;15.40;99.90
12276;DHT22;6200;48.144;11.424;2022-09-09T03:36:13;15.40;99.90
12276;DHT22;6200;48.144;11.424;2022-09-09T03:38:39;15.40;99.90
12276;DHT22;6200;48.144;11.424;2022-09-09T03:41:05;15.40;99.90
12276;DHT22;6200;48.144;11.424;2022-09-09T03:43:31;15.30;99.90
12276;DHT22;6200;48.144;11.424;2022-09-09T03:45:56;15.30;99.90
12276;DHT22;6200;48.144;11.424;2022-09-09T03:48:22;15.30;99.90
12276;DHT22;6200;48.144;11.424;2022-09-09T03:50:52;15.30;99.90
12276;DHT22;6200;48.144;11.424;2022-09-09T03:53:21;15.30;99.90
12276;DHT22;6200;48.144;11.424;2022-09-09T03:55:49;15.30;99.90
12276;DHT22;6200;48.144;11.424;2022-09-09T03:58:16;15.30;99.90
12276;DHT22;6200;48.144;11.424;2022-09-09T04:00:44;15.30;99.90
12276;DHT22;6200;48.144;11.424;2022-09-09T04:03:17;15.30;99.90
12276;DHT22;6200;48.144;11.424;2022-09-09T04:05:43;15.30;99.90
12276;DHT22;6200;48.144;11.424;2022-09-09T04:08:08;15.30;99.90
12276;DHT22;6200;48.144;11.424;2022-09-09T04:10:34;15.30;99.90
12276;DHT22;6200;48.144;11.424;2022-09-09T04:13:06;15.30;99.90
12276;DHT22;6200;48.144;11.424;2022-09-09T04:15:31;15.30;99.90
12276;DHT22;6200;48.144;11.424;2022-09-09T04:17:57;15.30;99.90
12276;DHT22;6200;48.144;11.424;2022-09-09T04:20:23;15.30;99.90
12276;DHT22;6200;48.144;11.424;2022-09-09T04:22:48;15.40;99.90
12276;DHT22;6200;48.144;11.424;2022-09-09T04:25:14;15.40;99.90
12276;DHT22;6200;48.144;11.424;2022-09-09T04:27:40;15.30;99.90
12276;DHT22;6200;48.144;11.424;2022-09-09T04:30:06;15.40;99.90
12276;DHT22;6200;48.144;11.424;2022-09-09T04:32:33;15.40;99.90
12276;DHT22;6200;48.144;11.424;2022-09-09T04:34:58;15.30;99.90
12276;DHT22;6200;48.144;11.424;2022-09-09T04:37:24;15.30;99.90
12276;DHT22;6200;48.144;11.424;2022-09-09T04:39:50;15.30;99.90
12276;DHT22;6200;48.144;11.424;2022-09-09T04:42:15;15.30;99.90
12276;DHT22;6200;48.144;11.424;2022-09-09T04:44:43;15.30;99.90
12276;DHT22;6200;48.144;11.424;2022-09-09T04:47:09;15.30;99.90
12276;DHT22;6200;48.144;11.424;2022-09-09T04:49:35;15.30;99.90
12276;DHT22;6200;48.144;11.424;2022-09-09T04:52:02;15.30;99.90
12276;DHT22;6200;48.144;11.424;2022-09-09T04:54:28;15.30;99.90
12276;DHT22;6200;48.144;11.424;2022-09-09T04:56:54;15.30;99.90
12276;DHT22;6200;48.144;11.424;2022-09-09T04:59:20;15.30;99.90
12276;DHT22;6200;48.144;11.424;2022-09-09T05:01:47;15.30;99.90
12276;DHT22;6200;48.144;11.424;2022-09-09T05:04:12;15.30;99.90
12276;DHT22;6200;48.144;11.424;2022-09-09T05:06:39;15.30;99.90
12276;DHT22;6200;48.144;11.424;2022-09-09T05:09:05;15.30;99.90
12276;DHT22;6200;48.144;11.424;2022-09-09T05:11:32;15.30;99.90
12276;DHT22;6200;48.144;11.424;2022-09-09T05:13:58;15.30;99.90
12276;DHT22;6200;48.144;11.424;2022-09-09T05:16:23;15.30;99.90
12276;DHT22;6200;48.144;11.424;2022-09-09T05:18:49;15.30;99.90
12276;DHT22;6200;48.144;11.424;2022-09-09T05:21:17;15.30;99.90
12276;DHT22;6200;48.144;11.424;2022-09-09T05:23:44;15.30;99.90
12276;DHT22;6200;48.144;11.424;2022-09-09T05:26:13;15.30;99.90
12276;DHT22;6200;48.144;11.424;2022-09-09T05:28:39;16.90;99.90
12276;DHT22;6200;48.144;11.424;2022-09-09T05:31:09;15.30;99.90
12276;DHT22;6200;48.144;11.424;2022-09-09T05:33:38;15.30;99.90
12276;DHT22;6200;48.144;11.424;2022-09-09T05:36:08;15.30;99.90
12276;DHT22;6200;48.144;11.424;2022-09-09T05:38:34;15.40;99.90
12276;DHT22;6200;48.144;11.424;2022-09-09T05:41:02;15.40;99.90
12276;DHT22;6200;48.144;11.424;2022-09-09T05:43:28;15.50;99.90
12276;DHT22;6200;48.144;11.424;2022-09-09T05:46:05;15.50;99.90
12276;DHT22;6200;48.144;11.424;2022-09-09T05:48:32;15.50;99.90
12276;DHT22;6200;48.144;11.424;2022-09-09T05:50:59;15.50;99.90
12276;DHT22;6200;48.144;11.424;2022-09-09T05:53:28;15.60;99.90
12276;DHT22;6200;48.144;11.424;2022-09-09T05:56:02;15.60;99.90
12276;DHT22;6200;48.144;11.424;2022-09-09T05:58:32;15.60;99.90
12276;DHT22;6200;48.144;11.424;2022-09-09T06:01:06;15.70;99.90
12276;DHT22;6200;48.144;11.424;2022-09-09T06:03:34;15.70;99.90
12276;DHT22;6200;48.144;11.424;2022-09-09T06:06:02;15.70;99.90
12276;DHT22;6200;48.144;11.424;2022-09-09T06:08:31;15.70;99.90
12276;DHT22;6200;48.144;11.424;2022-09-09T06:11:04;15.80;99.90
12276;DHT22;6200;48.144;11.424;2022-09-09T06:13:31;15.80;99.90
12276;DHT22;6200;48.144;11.424;2022-09-09T06:15:56;15.80;99.90
12276;DHT22;6200;48.144;11.424;2022-09-09T06:18:23;15.80;99.90
12276;DHT22;6200;48.144;11.424;2022-09-09T06:21:00;15.80;99.90
12276;DHT22;6200;48.144;11.424;2022-09-09T06:23:27;15.80;99.90
12276;DHT22;6200;48.144;11.424;2022-09-09T06:26:09;15.90;99.90
12276;DHT22;6200;48.144;11.424;2022-09-09T06:28:35;15.90;99.90
12276;DHT22;6200;48.144;11.424;2022-09-09T06:31:06;15.90;99.90
12276;DHT22;6200;48.144;11.424;2022-09-09T06:33:37;15.90;99.90
12276;DHT22;6200;48.144;11.424;2022-09-09T06:36:11;15.90;99.90
12276;DHT22;6200;48.144;11.424;2022-09-09T06:38:37;16.00;99.90
12276;DHT22;6200;48.144;11.424;2022-09-09T06:41:03;16.00;99.90
12276;DHT22;6200;48.144;11.424;2022-09-09T06:43:29;16.00;99.90
12276;DHT22;6200;48.144;11.424;2022-09-09T06:46:04;16.00;99.90
12276;DHT22;6200;48.144;11.424;2022-09-09T06:48:30;16.10;99.90
12276;DHT22;6200;48.144;11.424;2022-09-09T06:51:06;16.10;99.90
12276;DHT22;6200;48.144;11.424;2022-09-09T06:53:33;16.10;99.90
12276;DHT22;6200;48.144;11.424;2022-09-09T06:56:01;16.10;99.90
12276;DHT22;6200;48.144;11.424;2022-09-09T06:58:27;16.20;99.90
12276;DHT22;6200;48.144;11.424;2022-09-09T07:01:07;16.20;99.90
12276;DHT22;6200;48.144;11.424;2022-09-09T07:03:33;16.20;99.90
12276;DHT22;6200;48.144;11.424;2022-09-09T07:05:59;16.30;99.90
12276;DHT22;6200;48.144;11.424;2022-09-09T07:08:24;16.40;99.90
12276;DHT22;6200;48.144;11.424;2022-09-09T07:10:51;16.40;99.90
12276;DHT22;6200;48.144;11.424;2022-09-09T07:13:25;16.40;99.90
12276;DHT22;6200;48.144;11.424;2022-09-09T07:15:51;16.40;99.90
12276;DHT22;6200;48.144;11.424;2022-09-09T07:18:17;16.50;99.90
12276;DHT22;6200;48.144;11.424;2022-09-09T07:20:52;16.60;99.90
12276;DHT22;6200;48.144;11.424;2022-09-09T07:23:18;16.60;99.90
12276;DHT22;6200;48.144;11.424;2022-09-09T07:25:46;16.70;99.90
12276;DHT22;6200;48.144;11.424;2022-09-09T07:28:13;16.80;99.90
12276;DHT22;6200;48.144;11.424;2022-09-09T07:30:39;16.90;99.90
12276;DHT22;6200;48.144;11.424;2022-09-09T07:33:05;17.00;99.90
12276;DHT22;6200;48.144;11.424;2022-09-09T07:35:31;17.00;99.90
12276;DHT22;6200;48.144;11.424;2022-09-09T07:37:57;17.10;99.90
12276;DHT22;6200;48.144;11.424;2022-09-09T07:40:24;17.20;99.90
12276;DHT22;6200;48.144;11.424;2022-09-09T07:42:49;17.20;99.90
12276;DHT22;6200;48.144;11.424;2022-09-09T07:45:15;17.20;99.90
12276;DHT22;6200;48.144;11.424;2022-09-09T07:47:41;17.20;99.90
12276;DHT22;6200;48.144;11.424;2022-09-09T07:50:08;17.20;99.90
12276;DHT22;6200;48.144;11.424;2022-09-09T07:52:35;17.30;99.90
12276;DHT22;6200;48.144;11.424;2022-09-09T07:55:00;17.40;99.90
12276;DHT22;6200;48.144;11.424;2022-09-09T07:57:28;17.50;99.90
12276;DHT22;6200;48.144;11.424;2022-09-09T07:59:56;17.60;99.90
12276;DHT22;6200;48.144;11.424;2022-09-09T08:02:22;17.70;99.90
12276;DHT22;6200;48.144;11.424;2022-09-09T08:04:48;17.70;99.90
12276;DHT22;6200;48.144;11.424;2022-09-09T08:07:14;17.80;99.90
12276;DHT22;6200;48.144;11.424;2022-09-09T08:09:39;17.90;99.90
12276;DHT22;6200;48.144;11.424;2022-09-09T08:12:05;17.90;99.90
12276;DHT22;6200;48.144;11.424;2022-09-09T08:14:34;17.90;99.90
12276;DHT22;6200;48.144;11.424;2022-09-09T08:16:59;18.00;99.90
12276;DHT22;6200;48.144;11.424;2022-09-09T08:19:25;18.00;99.90
12276;DHT22;6200;48.144;11.424;2022-09-09T08:21:51;18.00;99.90
12276;DHT22;6200;48.144;11.424;2022-09-09T08:24:16;18.00;99.90
12276;DHT22;6200;48.144;11.424;2022-09-09T08:26:46;18.00;99.90
12276;DHT22;6200;48.144;11.424;2022-09-09T08:29:13;18.00;99.90
12276;DHT22;6200;48.144;11.424;2022-09-09T08:31:46;17.90;99.90
12276;DHT22;6200;48.144;11.424;2022-09-09T08:34:13;17.80;99.90
12276;DHT22;6200;48.144;11.424;2022-09-09T08:36:43;17.70;99.90
12276;DHT22;6200;48.144;11.424;2022-09-09T08:39:11;17.70;99.90
12276;DHT22;6200;48.144;11.424;2022-09-09T09:09:46;18.40;99.90
12276;DHT22;6200;48.144;11.424;2022-09-09T09:12:20;18.50;99.90
12276;DHT22;6200;48.144;11.424;2022-09-09T09:14:48;18.50;99.90
12276;DHT22;6200;48.144;11.424;2022-09-09T09:19:41;18.50;99.90
12276;DHT22;6200;48.144;11.424;2022-09-09T09:22:30;18.50;99.90
12276;DHT22;6200;48.144;11.424;2022-09-09T09:25:20;18.50;99.90
12276;DHT22;6200;48.144;11.424;2022-09-09T09:28:17;18.70;99.90
12276;DHT22;6200;48.144;11.424;2022-09-09T09:30:51;18.90;99.90
12276;DHT22;6200;48.144;11.424;2022-09-09T09:33:33;18.90;99.90
12276;DHT22;6200;48.144;11.424;2022-09-09T09:36:00;19.00;99.90
12276;DHT22;6200;48.144;11.424;2022-09-09T09:38:28;19.00;99.90
12276;DHT22;6200;48.144;11.424;2022-09-09T09:40:58;19.00;99.90
12276;DHT22;6200;48.144;11.424;2022-09-09T09:43:27;18.90;99.90
12276;DHT22;6200;48.144;11.424;2022-09-09T09:45:53;18.80;99.90
12276;DHT22;6200;48.144;11.424;2022-09-09T09:48:19;18.80;99.90
12276;DHT22;6200;48.144;11.424;2022-09-09T09:51:11;18.70;99.90
12276;DHT22;6200;48.144;11.424;2022-09-09T09:53:41;18.70;99.90
12276;DHT22;6200;48.144;11.424;2022-09-09T09:56:08;18.60;99.90
12276;DHT22;6200;48.144;11.424;2022-09-09T09:58:49;18.50;99.90
12276;DHT22;6200;48.144;11.424;2022-09-09T10:01:29;18.50;99.90
12276;DHT22;6200;48.144;11.424;2022-09-09T10:04:14;18.40;99.90
12276;DHT22;6200;48.144;11.424;2022-09-09T10:06:41;18.30;99.90
12276;DHT22;6200;48.144;11.424;2022-09-09T10:09:30;18.20;99.90
12276;DHT22;6200;48.144;11.424;2022-09-09T10:12:12;18.20;99.90
12276;DHT22;6200;48.144;11.424;2022-09-09T10:17:40;18.20;99.90
12276;DHT22;6200;48.144;11.424;2022-09-09T10:20:14;18.20;99.90
12276;DHT22;6200;48.144;11.424;2022-09-09T10:22:50;18.30;99.90
12276;DHT22;6200;48.144;11.424;2022-09-09T10:31:16;18.50;99.90
12276;DHT22;6200;48.144;11.424;2022-09-09T10:36:40;18.70;99.90
12276;DHT22;6200;48.144;11.424;2022-09-09T10:42:13;18.90;99.90
12276;DHT22;6200;48.144;11.424;2022-09-09T10:56:13;19.20;99.90
12276;DHT22;6200;48.144;11.424;2022-09-09T11:01:56;19.30;99.90
12276;DHT22;6200;48.144;11.424;2022-09-09T11:04:27;19.40;99.90
12276;DHT22;6200;48.144;11.424;2022-09-09T11:06:56;19.40;99.90
12276;DHT22;6200;48.144;11.424;2022-09-09T11:09:25;19.50;99.90
12276;DHT22;6200;48.144;11.424;2022-09-09T11:11:54;19.70;99.90
12276;DHT22;6200;48.144;11.424;2022-09-09T11:14:43;20.00;99.90
12276;DHT22;6200;48.144;11.424;2022-09-09T11:17:18;20.30;99.90
12276;DHT22;6200;48.144;11.424;2022-09-09T11:19:45;20.70;99.90
12276;DHT22;6200;48.144;11.424;2022-09-09T11:22:32;20.90;99.90
12276;DHT22;6200;48.144;11.424;2022-09-09T11:25:14;21.20;99.90
12276;DHT22;6200;48.144;11.424;2022-09-09T11:44:32;21.20;99.90
12276;DHT22;6200;48.144;11.424;2022-09-09T11:46:57;21.20;99.90
12276;DHT22;6200;48.144;11.424;2022-09-09T11:49:43;21.20;99.90
12276;DHT22;6200;48.144;11.424;2022-09-09T11:52:13;21.20;99.90
12276;DHT22;6200;48.144;11.424;2022-09-09T11:54:47;21.10;99.90
12276;DHT22;6200;48.144;11.424;2022-09-09T11:57:33;21.10;99.90
12276;DHT22;6200;48.144;11.424;2022-09-09T12:00:00;21.00;99.90
12276;DHT22;6200;48.144;11.424;2022-09-09T12:02:28;20.80;99.90
12276;DHT22;6200;48.144;11.424;2022-09-09T12:05:06;20.80;99.90
12276;DHT22;6200;48.144;11.424;2022-09-09T12:07:41;20.80;99.90
12276;DHT22;6200;48.144;11.424;2022-09-09T12:12:49;20.90;99.90
12276;DHT22;6200;48.144;11.424;2022-09-09T12:17:53;21.10;99.90
12276;DHT22;6200;48.144;11.424;2022-09-09T12:28:20;21.50;99.90
12276;DHT22;6200;48.144;11.424;2022-09-09T12:30:58;21.80;99.90
12276;DHT22;6200;48.144;11.424;2022-09-09T12:33:34;21.90;99.90
12276;DHT22;6200;48.144;11.424;2022-09-09T12:36:01;22.00;99.90
12276;DHT22;6200;48.144;11.424;2022-09-09T12:38:36;22.00;99.70
12276;DHT22;6200;48.144;11.424;2022-09-09T12:41:02;22.00;99.70
12276;DHT22;6200;48.144;11.424;2022-09-09T12:43:29;22.00;98.30
12276;DHT22;6200;48.144;11.424;2022-09-09T12:46:06;22.00;98.40
12276;DHT22;6200;48.144;11.424;2022-09-09T12:48:37;22.00;98.00
12276;DHT22;6200;48.144;11.424;2022-09-09T12:51:16;22.00;97.00
12276;DHT22;6200;48.144;11.424;2022-09-09T12:53:42;22.00;98.50
12276;DHT22;6200;48.144;11.424;2022-09-09T12:56:19;22.00;97.80
12276;DHT22;6200;48.144;11.424;2022-09-09T12:58:48;22.10;97.50
12276;DHT22;6200;48.144;11.424;2022-09-09T13:01:28;22.10;98.40
12276;DHT22;6200;48.144;11.424;2022-09-09T13:03:54;22.00;99.40
12276;DHT22;6200;48.144;11.424;2022-09-09T13:06:31;21.90;99.60
12276;DHT22;6200;48.144;11.424;2022-09-09T13:09:00;21.80;99.90
12276;DHT22;6200;48.144;11.424;2022-09-09T13:11:41;21.80;99.90
12276;DHT22;6200;48.144;11.424;2022-09-09T13:17:01;21.70;99.70
12276;DHT22;6200;48.144;11.424;2022-09-09T13:19:37;21.70;99.90
12276;DHT22;6200;48.144;11.424;2022-09-09T13:22:31;21.80;99.50
12276;DHT22;6200;48.144;11.424;2022-09-09T13:25:02;21.80;98.60
12276;DHT22;6200;48.144;11.424;2022-09-09T13:27:33;21.80;98.80
12276;DHT22;6200;48.144;11.424;2022-09-09T13:30:00;21.80;97.80
12276;DHT22;6200;48.144;11.424;2022-09-09T13:32:26;21.80;98.70
12276;DHT22;6200;48.144;11.424;2022-09-09T13:34:56;21.70;99.20
12276;DHT22;6200;48.144;11.424;2022-09-09T13:37:33;21.80;98.90
12276;DHT22;6200;48.144;11.424;2022-09-09T13:39:59;21.70;99.20
12276;DHT22;6200;48.144;11.424;2022-09-09T13:42:29;21.60;98.50
12276;DHT22;6200;48.144;11.424;2022-09-09T13:44:57;21.60;98.80
12276;DHT22;6200;48.144;11.424;2022-09-09T13:47:30;21.40;98.20
12276;DHT22;6200;48.144;11.424;2022-09-09T13:49:56;21.20;98.70
12276;DHT22;6200;48.144;11.424;2022-09-09T13:52:22;21.10;99.50
12276;DHT22;6200;48.144;11.424;2022-09-09T13:54:49;21.00;99.60
12276;DHT22;6200;48.144;11.424;2022-09-09T13:57:23;20.80;99.50
12276;DHT22;6200;48.144;11.424;2022-09-09T13:59:52;20.70;99.90
12276;DHT22;6200;48.144;11.424;2022-09-09T14:02:18;20.50;99.90
12276;DHT22;6200;48.144;11.424;2022-09-09T14:04:44;20.50;99.90
12276;DHT22;6200;48.144;11.424;2022-09-09T14:07:16;20.50;99.90
12276;DHT22;6200;48.144;11.424;2022-09-09T14:09:42;20.40;99.90
12276;DHT22;6200;48.144;11.424;2022-09-09T14:12:11;20.40;99.90
12276;DHT22;6200;48.144;11.424;2022-09-09T14:14:37;20.40;99.90
12276;DHT22;6200;48.144;11.424;2022-09-09T14:17:03;20.30;99.90
12276;DHT22;6200;48.144;11.424;2022-09-09T14:19:29;20.30;99.90
12276;DHT22;6200;48.144;11.424;2022-09-09T14:21:56;20.20;99.90
12276;DHT22;6200;48.144;11.424;2022-09-09T14:24:22;20.30;99.90
12276;DHT22;6200;48.144;11.424;2022-09-09T14:26:47;20.30;99.90
12276;DHT22;6200;48.144;11.424;2022-09-09T14:29:13;20.30;99.90
12276;DHT22;6200;48.144;11.424;2022-09-09T14:31:38;20.30;99.90
12276;DHT22;6200;48.144;11.424;2022-09-09T14:34:04;20.20;99.90
12276;DHT22;6200;48.144;11.424;2022-09-09T14:36:29;20.20;99.90
12276;DHT22;6200;48.144;11.424;2022-09-09T14:38:55;20.10;99.90
12276;DHT22;6200;48.144;11.424;2022-09-09T14:41:20;20.10;99.90
12276;DHT22;6200;48.144;11.424;2022-09-09T14:43:48;20.10;99.90
12276;DHT22;6200;48.144;11.424;2022-09-09T14:46:15;20.00;99.90
12276;DHT22;6200;48.144;11.424;2022-09-09T14:48:41;20.00;99.90
12276;DHT22;6200;48.144;11.424;2022-09-09T14:53:35;19.90;99.90
12276;DHT22;6200;48.144;11.424;2022-09-09T14:56:20;19.80;99.90
12276;DHT22;6200;48.144;11.424;2022-09-09T14:58:47;19.80;99.90
12276;DHT22;6200;48.144;11.424;2022-09-09T15:01:15;19.70;99.90
12276;DHT22;6200;48.144;11.424;2022-09-09T15:03:43;19.60;99.90
12276;DHT22;6200;48.144;11.424;2022-09-09T15:06:13;19.60;99.90
12276;DHT22;6200;48.144;11.424;2022-09-09T15:08:41;19.60;99.90
12276;DHT22;6200;48.144;11.424;2022-09-09T15:11:07;19.70;99.90
12276;DHT22;6200;48.144;11.424;2022-09-09T15:13:34;19.70;99.90
12276;DHT22;6200;48.144;11.424;2022-09-09T15:16:08;19.80;99.90
12276;DHT22;6200;48.144;11.424;2022-09-09T15:18:34;19.80;99.90
12276;DHT22;6200;48.144;11.424;2022-09-09T15:21:04;19.80;99.90
12276;DHT22;6200;48.144;11.424;2022-09-09T15:23:34;19.90;99.90
12276;DHT22;6200;48.144;11.424;2022-09-09T15:25:59;20.00;99.90
12276;DHT22;6200;48.144;11.424;2022-09-09T15:28:25;20.10;99.90
12276;DHT22;6200;48.144;11.424;2022-09-09T15:30:51;20.20;99.90
12276;DHT22;6200;48.144;11.424;2022-09-09T15:33:18;20.20;99.90
12276;DHT22;6200;48.144;11.424;2022-09-09T15:35:45;20.20;99.90
12276;DHT22;6200;48.144;11.424;2022-09-09T15:38:11;20.20;99.90
12276;DHT22;6200;48.144;11.424;2022-09-09T15:40:38;20.30;99.90
12276;DHT22;6200;48.144;11.424;2022-09-09T15:43:05;20.20;99.90
12276;DHT22;6200;48.144;11.424;2022-09-09T15:45:32;20.30;99.90
12276;DHT22;6200;48.144;11.424;2022-09-09T15:47:59;20.30;99.90
12276;DHT22;6200;48.144;11.424;2022-09-09T15:50:24;20.30;99.90
12276;DHT22;6200;48.144;11.424;2022-09-09T15:52:50;20.20;99.70
12276;DHT22;6200;48.144;11.424;2022-09-09T15:55:17;20.10;99.60
12276;DHT22;6200;48.144;11.424;2022-09-09T15:57:42;21.30;99.90
12276;DHT22;6200;48.144;11.424;2022-09-09T16:00:08;19.90;99.90
12276;DHT22;6200;48.144;11.424;2022-09-09T16:02:34;19.80;99.90
12276;DHT22;6200;48.144;11.424;2022-09-09T16:05:00;19.70;99.90
12276;DHT22;6200;48.144;11.424;2022-09-09T16:07:26;19.60;99.90
12276;DHT22;6200;48.144;11.424;2022-09-09T16:09:52;19.60;99.90
12276;DHT22;6200;48.144;11.424;2022-09-09T16:12:18;19.50;99.90
12276;DHT22;6200;48.144;11.424;2022-09-09T16:14:44;19.50;99.90
12276;DHT22;6200;48.144;11.424;2022-09-09T16:17:10;19.60;99.90
12276;DHT22;6200;48.144;11.424;2022-09-09T16:19:36;19.60;99.90
12276;DHT22;6200;48.144;11.424;2022-09-09T16:22:02;19.60;99.90
12276;DHT22;6200;48.144;11.424;2022-09-09T16:24:29;19.60;99.90
12276;DHT22;6200;48.144;11.424;2022-09-09T16:26:55;19.60;99.90
12276;DHT22;6200;48.144;11.424;2022-09-09T16:29:22;19.60;99.70
12276;DHT22;6200;48.144;11.424;2022-09-09T16:31:48;19.50;99.40
12276;DHT22;6200;48.144;11.424;2022-09-09T16:34:18;19.40;99.40
12276;DHT22;6200;48.144;11.424;2022-09-09T16:36:44;19.40;99.90
12276;DHT22;6200;48.144;11.424;2022-09-09T16:39:12;19.30;99.70
12276;DHT22;6200;48.144;11.424;2022-09-09T16:41:39;19.30;99.90
12276;DHT22;6200;48.144;11.424;2022-09-09T16:44:07;19.20;99.90
12276;DHT22;6200;48.144;11.424;2022-09-09T16:46:38;19.10;99.90
12276;DHT22;6200;48.144;11.424;2022-09-09T16:49:07;19.10;99.90
12276;DHT22;6200;48.144;11.424;2022-09-09T16:51:43;19.10;99.90
12276;DHT22;6200;48.144;11.424;2022-09-09T16:54:10;19.00;99.90
12276;DHT22;6200;48.144;11.424;2022-09-09T16:56:41;18.90;99.90
12276;DHT22;6200;48.144;11.424;2022-09-09T16:59:18;18.90;99.90
12276;DHT22;6200;48.144;11.424;2022-09-09T17:01:46;18.80;99.90
12276;DHT22;6200;48.144;11.424;2022-09-09T17:04:17;19.60;99.90
12276;DHT22;6200;48.144;11.424;2022-09-09T17:06:49;18.70;99.90
12276;DHT22;6200;48.144;11.424;2022-09-09T17:09:16;18.70;99.90
12276;DHT22;6200;48.144;11.424;2022-09-09T17:11:42;18.70;99.90
12276;DHT22;6200;48.144;11.424;2022-09-09T17:14:10;18.60;99.90
12276;DHT22;6200;48.144;11.424;2022-09-09T17:16:36;18.50;99.90
12276;DHT22;6200;48.144;11.424;2022-09-09T17:19:04;18.50;99.90
12276;DHT22;6200;48.144;11.424;2022-09-09T17:21:31;18.40;99.90
12276;DHT22;6200;48.144;11.424;2022-09-09T17:23:57;18.40;99.90
12276;DHT22;6200;48.144;11.424;2022-09-09T17:26:27;18.30;99.90
12276;DHT22;6200;48.144;11.424;2022-09-09T17:28:53;18.20;99.90
12276;DHT22;6200;48.144;11.424;2022-09-09T17:31:21;18.20;99.90
12276;DHT22;6200;48.144;11.424;2022-09-09T17:33:48;18.20;99.90
12276;DHT22;6200;48.144;11.424;2022-09-09T17:36:20;18.10;99.90
12276;DHT22;6200;48.144;11.424;2022-09-09T17:38:47;18.10;99.90
12276;DHT22;6200;48.144;11.424;2022-09-09T17:43:39;18.00;99.90
12276;DHT22;6200;48.144;11.424;2022-09-09T17:46:11;18.00;99.90
12276;DHT22;6200;48.144;11.424;2022-09-09T17:48:38;17.90;99.90
12276;DHT22;6200;48.144;11.424;2022-09-09T17:51:05;17.90;99.90
12276;DHT22;6200;48.144;11.424;2022-09-09T17:53:35;17.80;99.90